Flight Number: EUR1203 Duration: 1:20
Departure: Chisinau Int'l Airport (LUKK) at 18:25 Distance: 385 Nm
Arrival: Beograd/Belgrade (LYBE) at 19:45 Equipment: A321

Weather Information
Chisinau International Airport, Moldova (LUKK) 46-55-40N 028-55-51E Oct 19, 2018 - 02:00 PM EDT / 2018.10.19 1800 UTC
Wind: from the NNW (340 degrees) at 7 MPH (6 KT) (direction variable):0
Visibility: 3 mile(s):0
Sky conditions: mostly clear Temperature: 57 F (14 C) Dew Point: 48 F (9 C) Relative Humidity: 71% Pressure (altimeter): 30.03 in. Hg (1017 hPa)
ob: LUKK 191800Z 34006KT 320V030 6000 FEW049 14/09 Q1017 R08/250199 NOSIG cycle: 18
Sunrise: 04:32 Sunset: 15:06 (UTC)

Beograd / Surcin, Serbia and Montenegro (LYBE) 44-49N 020-17E 99M Oct 19, 2018 - 02:00 PM EDT / 2018.10.19 1800 UTC
Wind: from the ENE (060 degrees) at 5 MPH (4 KT):0
Visibility: greater than 7 mile(s):0 Temperature: 60 F (16 C) Dew Point: 50 F (10 C) Relative Humidity: 67% Pressure (altimeter): 30.09 in. Hg (1019 hPa)
ob: LYBE 191800Z 06004KT CAVOK 16/10 Q1019 NOSIG cycle: 18
Sunrise: 05:03 Sunset: 15:43 (UTC)

TAF:2018/10/19 18:21 TAF LYBE 191700Z 1918/2018 34007KT 9999 SCT045 TX19/2012Z TN10/2005Z TEMPO 1920/2002 5000 SHRA SCT033TCU BKN040 TEMPO 2004/2007 2000 BR

Previous Pireps for this route
Date Aircraft Flight time Fuel used Landing rate On time
2013-04-19A32101.329410-366No
2014-11-23B757-20001.1912862-206Charter
2015-04-19A32101.318557-212Yes
2015-08-11A3211.20163800Yes
(pireps marked green are flown by you)

Route map